Hermosa, South Dakota
Current Conditions -  °F | °C
As of 5:52 PM on Sunday 21 Dec 2014 (Local Time) from KRAP Reporting Station
Light Rain Light Rain  
Wind Chill: 33°   Ceiling: 4700
Heat Index: 40°   Visibility: 10mi
Dew Point: 32°   Wind: 13mph
Humidity: 73%   Direction: 330°NNW
Pressure: 29.45"   Gusts: NA
Location:  43.84°N, 103.19°W
Report Text: KRAP 220052Z 33011KT 10SM -RA SCT038 OVC047 04/00 A2945 RMK AO2 RAB43 SLP996 P0000 T00440000
Loading
Personal Weather Stations






























Interactive Weather Map New forecast layout! Learn more

10-Day Weather Forecast

Advertisements
Track Severe Weather on mobile